createdAt,value
2023-02-19T00:01:46.390Z,100218.86
2023-02-19T00:04:16.237Z,100210.19
2023-02-19T00:06:45.082Z,100209.86
2023-02-19T00:09:13.927Z,100210.85
2023-02-19T00:11:42.322Z,100215.00
2023-02-19T00:14:11.517Z,100213.88
2023-02-19T00:16:39.831Z,100215.20
2023-02-19T00:19:09.293Z,100219.63
2023-02-19T00:21:37.141Z,100220.18
2023-02-19T00:24:05.930Z,100218.83
2023-02-19T00:26:34.851Z,100218.19
2023-02-19T00:29:02.893Z,100220.30
2023-02-19T00:31:35.092Z,100219.95
2023-02-19T00:34:04.471Z,100221.25
2023-02-19T00:36:35.045Z,100224.61
2023-02-19T00:39:03.566Z,100230.98
2023-02-19T00:41:32.063Z,100236.29
2023-02-19T00:44:01.833Z,100239.11
2023-02-19T00:46:34.078Z,100242.77
2023-02-19T00:49:02.256Z,100242.55
2023-02-19T00:51:32.242Z,100236.41
2023-02-19T00:54:00.388Z,100234.85
2023-02-19T00:56:28.509Z,100232.10
2023-02-19T00:58:56.550Z,100227.16
2023-02-19T01:01:24.493Z,100226.87
2023-02-19T01:03:53.131Z,100224.59
2023-02-19T01:06:21.060Z,100220.56
2023-02-19T01:08:49.146Z,100220.64
2023-02-19T01:11:17.763Z,100219.15
2023-02-19T01:13:45.900Z,100219.52
2023-02-19T01:16:21.128Z,100223.33
2023-02-19T01:18:49.020Z,100223.61
2023-02-19T01:21:20.767Z,100223.52
2023-02-19T01:23:49.447Z,100227.11
2023-02-19T01:26:19.078Z,100231.95
2023-02-19T01:28:48.439Z,100231.45
2023-02-19T01:31:17.554Z,100230.77
2023-02-19T01:33:46.965Z,100233.35
2023-02-19T01:36:15.662Z,100234.23
2023-02-19T01:38:43.442Z,100232.38
2023-02-19T01:41:13.354Z,100229.43
2023-02-19T01:43:57.960Z,100232.23
2023-02-19T01:46:33.116Z,100231.84
2023-02-19T01:49:04.618Z,100227.98
2023-02-19T01:51:32.870Z,100226.59
2023-02-19T01:54:02.783Z,100225.80
2023-02-19T01:56:31.974Z,100227.30
2023-02-19T01:59:00.535Z,100224.42
2023-02-19T02:01:28.288Z,100227.39
2023-02-19T02:03:56.760Z,100228.90
2023-02-19T02:06:29.866Z,100226.66
2023-02-19T02:09:16.962Z,100226.93
2023-02-19T02:11:52.636Z,100229.15
2023-02-19T02:14:23.778Z,100229.98
2023-02-19T02:16:51.577Z,100233.36
2023-02-19T02:19:39.670Z,100240.06
2023-02-19T02:22:13.657Z,100240.48
2023-02-19T02:24:50.934Z,100237.31
2023-02-19T02:27:22.694Z,100238.85
2023-02-19T02:29:59.435Z,100240.21
2023-02-19T02:32:32.675Z,100238.80
2023-02-19T02:35:11.559Z,100239.50
2023-02-19T02:37:41.855Z,100238.45
2023-02-19T02:40:10.932Z,100237.02
2023-02-19T02:42:39.934Z,100240.61
2023-02-19T02:45:38.028Z,100244.41
2023-02-19T02:48:54.104Z,100241.27
2023-02-19T02:51:25.432Z,100237.23
2023-02-19T02:54:43.285Z,100241.67
2023-02-19T02:57:14.982Z,100242.90
2023-02-19T02:59:49.721Z,100244.14
2023-02-19T03:02:25.236Z,100240.11
2023-02-19T03:05:30.585Z,100245.27
2023-02-19T03:08:04.274Z,100240.84
2023-02-19T03:10:43.627Z,100242.67
2023-02-19T03:13:34.500Z,100241.85
2023-02-19T03:16:24.305Z,100246.61
2023-02-19T03:19:12.503Z,100241.73
2023-02-19T03:21:42.395Z,100241.39
2023-02-19T03:24:30.471Z,100245.45
2023-02-19T03:26:59.769Z,100246.42
2023-02-19T03:29:32.105Z,100251.93
2023-02-19T03:32:11.903Z,100255.70
2023-02-19T03:34:53.195Z,100259.90
2023-02-19T03:37:25.300Z,100263.71
2023-02-19T03:39:54.086Z,100266.92
2023-02-19T03:42:37.904Z,100264.73
2023-02-19T03:45:15.270Z,100263.92
2023-02-19T03:47:49.981Z,100262.98
2023-02-19T03:50:21.644Z,100264.23
2023-02-19T03:52:55.823Z,100263.36
2023-02-19T03:55:42.875Z,100262.08
2023-02-19T03:58:21.253Z,100260.51
2023-02-19T04:00:53.341Z,100258.59
2023-02-19T04:03:27.266Z,100258.55
2023-02-19T04:06:03.150Z,100258.18
2023-02-19T04:08:34.049Z,100252.06
2023-02-19T04:11:04.650Z,100250.02
2023-02-19T04:13:42.353Z,100251.02
2023-02-19T04:16:13.756Z,100249.45
2023-02-19T04:18:44.311Z,100250.98
2023-02-19T04:21:12.966Z,100256.99
2023-02-19T04:23:42.916Z,100263.48
2023-02-19T04:26:12.142Z,100265.91
2023-02-19T04:28:40.402Z,100266.96
2023-02-19T04:31:08.453Z,100262.34
2023-02-19T04:33:36.666Z,100267.25
2023-02-19T04:36:04.747Z,100277.73
2023-02-19T04:38:32.658Z,100287.52
2023-02-19T04:41:00.722Z,100291.65
2023-02-19T04:43:28.582Z,100297.86
2023-02-19T04:45:59.981Z,100295.00
2023-02-19T04:48:28.293Z,100291.59
2023-02-19T04:50:56.255Z,100291.19
2023-02-19T04:53:24.368Z,100292.90
2023-02-19T04:55:53.461Z,100294.23
2023-02-19T04:58:21.727Z,100294.83
2023-02-19T05:00:53.153Z,100286.16
2023-02-19T05:03:20.995Z,100289.52
2023-02-19T05:05:48.780Z,100293.21
2023-02-19T05:08:16.900Z,100288.28
2023-02-19T05:10:44.922Z,100281.80
2023-02-19T05:13:12.761Z,100278.48
2023-02-19T05:15:41.058Z,100278.65
2023-02-19T05:18:08.933Z,100279.71
2023-02-19T05:20:36.964Z,100272.66
2023-02-19T05:23:04.715Z,100271.72
2023-02-19T05:25:32.666Z,100270.02
2023-02-19T05:28:17.101Z,100265.00
2023-02-19T05:30:46.231Z,100266.71
2023-02-19T05:33:14.735Z,100264.48
2023-02-19T05:35:43.823Z,100261.40
2023-02-19T05:38:12.257Z,100254.73
2023-02-19T05:40:40.361Z,100251.03
2023-02-19T05:43:08.920Z,100250.42
2023-02-19T05:45:37.197Z,100254.08
2023-02-19T05:48:05.776Z,100255.95
2023-02-19T05:50:35.210Z,100264.07
2023-02-19T05:53:12.817Z,100266.59
2023-02-19T05:55:40.836Z,100267.39
2023-02-19T05:58:08.656Z,100265.73
2023-02-19T06:00:36.531Z,100264.64
2023-02-19T06:03:04.695Z,100272.40
2023-02-19T06:05:32.885Z,100274.24
2023-02-19T06:08:00.629Z,100275.79
2023-02-19T06:10:28.743Z,100270.44
2023-02-19T06:12:56.504Z,100262.80
2023-02-19T06:15:24.257Z,100257.27
2023-02-19T06:17:52.349Z,100251.77
2023-02-19T06:20:20.129Z,100256.91
2023-02-19T06:22:50.031Z,100264.19
2023-02-19T06:25:18.797Z,100270.65
2023-02-19T06:27:46.696Z,100273.45
2023-02-19T06:30:14.596Z,100274.20
2023-02-19T06:32:42.359Z,100271.80
2023-02-19T06:35:10.122Z,100274.15
2023-02-19T06:37:38.206Z,100271.99
2023-02-19T06:40:06.444Z,100276.88
2023-02-19T06:42:34.806Z,100280.42
2023-02-19T06:45:02.878Z,100280.54
2023-02-19T06:47:32.001Z,100280.61
2023-02-19T06:50:00.592Z,100287.27
2023-02-19T06:52:28.460Z,100293.95
2023-02-19T06:54:56.318Z,100301.11
2023-02-19T06:57:24.085Z,100296.52
2023-02-19T06:59:51.790Z,100294.66
2023-02-19T07:02:19.860Z,100297.67
2023-02-19T07:04:47.809Z,100293.27
2023-02-19T07:07:15.534Z,100290.83
2023-02-19T07:09:43.465Z,100292.92
2023-02-19T07:12:11.946Z,100290.46
2023-02-19T07:14:40.388Z,100277.77
2023-02-19T07:17:08.179Z,100280.10
2023-02-19T07:19:36.151Z,100285.63
2023-02-19T07:22:04.195Z,100286.56
2023-02-19T07:24:32.189Z,100292.30
2023-02-19T07:26:59.981Z,100291.30
2023-02-19T07:29:28.564Z,100289.73
2023-02-19T07:31:57.206Z,100291.31
2023-02-19T07:34:25.119Z,100292.54
2023-02-19T07:36:53.280Z,100290.15
2023-02-19T07:39:21.261Z,100287.94
2023-02-19T07:41:49.423Z,100284.23
2023-02-19T07:44:26.844Z,100282.47
2023-02-19T07:46:54.891Z,100283.10
2023-02-19T07:51:26.698Z,100295.30
2023-02-19T07:53:54.602Z,100288.48
2023-02-19T07:56:22.673Z,100289.14
2023-02-19T07:58:50.794Z,100288.61
2023-02-19T08:01:40.999Z,100278.14
2023-02-19T08:04:09.308Z,100278.44
2023-02-19T08:06:37.494Z,100277.17
2023-02-19T08:09:06.143Z,100271.67
2023-02-19T08:11:52.786Z,100266.95
2023-02-19T08:14:25.349Z,100264.73
2023-02-19T08:16:54.359Z,100266.73
2023-02-19T08:19:22.319Z,100268.77
2023-02-19T08:21:53.992Z,100270.79
2023-02-19T08:24:22.292Z,100271.35
2023-02-19T08:26:51.020Z,100281.66
2023-02-19T08:29:19.481Z,100287.92
2023-02-19T08:31:48.606Z,100291.98
2023-02-19T08:34:17.217Z,100287.04
2023-02-19T08:36:45.409Z,100289.87
2023-02-19T08:39:13.842Z,100296.63
2023-02-19T08:41:42.434Z,100297.30
2023-02-19T08:44:10.430Z,100298.36
2023-02-19T08:46:38.633Z,100291.80
2023-02-19T08:49:06.625Z,100293.44
2023-02-19T08:51:34.500Z,100297.07
2023-02-19T08:54:04.413Z,100291.10
2023-02-19T08:56:32.567Z,100287.18
2023-02-19T08:59:00.547Z,100284.20
2023-02-19T09:01:28.832Z,100283.41
2023-02-19T09:03:57.266Z,100289.19
2023-02-19T09:06:25.497Z,100285.80
2023-02-19T09:08:53.458Z,100279.20
2023-02-19T09:11:21.733Z,100280.44
2023-02-19T09:13:49.602Z,100279.89
2023-02-19T09:16:17.778Z,100281.20
2023-02-19T09:18:45.972Z,100273.34
2023-02-19T09:21:14.407Z,100270.21
2023-02-19T09:23:42.962Z,100273.45
2023-02-19T09:26:11.544Z,100278.14
2023-02-19T09:28:41.885Z,100278.30
2023-02-19T09:31:14.388Z,100273.94
2023-02-19T09:33:47.398Z,100270.55
2023-02-19T09:36:16.742Z,100270.81
2023-02-19T09:38:45.150Z,100271.17
2023-02-19T09:41:26.333Z,100273.14
2023-02-19T09:43:54.976Z,100270.17
2023-02-19T09:46:32.548Z,100268.63
2023-02-19T09:49:08.195Z,100269.90
2023-02-19T09:51:40.272Z,100266.14
2023-02-19T09:54:18.004Z,100266.55
2023-02-19T09:56:46.298Z,100265.63
2023-02-19T09:59:31.623Z,100272.08
2023-02-19T10:02:23.660Z,100275.91
2023-02-19T10:04:53.329Z,100273.16
2023-02-19T10:07:28.366Z,100272.05
2023-02-19T10:10:03.605Z,100267.23
2023-02-19T10:12:32.662Z,100267.27
2023-02-19T10:15:17.867Z,100264.98
2023-02-19T10:17:46.232Z,100259.61
2023-02-19T10:20:24.641Z,100263.88
2023-02-19T10:23:04.949Z,100259.23
2023-02-19T10:25:34.528Z,100259.58
2023-02-19T10:28:03.532Z,100257.66
2023-02-19T10:30:35.513Z,100255.54
2023-02-19T10:33:09.715Z,100247.42
2023-02-19T10:35:51.630Z,100245.50
2023-02-19T10:38:24.011Z,100240.70
2023-02-19T10:41:06.372Z,100234.52
2023-02-19T10:43:41.161Z,100228.98
2023-02-19T10:46:28.500Z,100231.23
2023-02-19T10:49:04.201Z,100226.66
2023-02-19T10:51:34.400Z,100223.75
2023-02-19T10:54:07.667Z,100220.73
2023-02-19T10:56:38.580Z,100220.42
2023-02-19T10:59:24.801Z,100215.61
2023-02-19T11:02:00.361Z,100208.42
2023-02-19T11:04:35.385Z,100201.92
2023-02-19T11:07:14.237Z,100201.16
2023-02-19T11:09:45.523Z,100196.05
2023-02-19T11:12:15.169Z,100190.91
2023-02-19T11:14:45.181Z,100185.13
2023-02-19T11:17:25.083Z,100179.58
2023-02-19T11:20:00.841Z,100174.51
2023-02-19T11:22:34.037Z,100175.30
2023-02-19T11:25:20.751Z,100179.62
2023-02-19T11:28:07.024Z,100175.73
2023-02-19T11:30:39.915Z,100173.08
2023-02-19T11:33:17.041Z,100171.98
2023-02-19T11:35:48.998Z,100167.77
2023-02-19T11:38:19.907Z,100165.27
2023-02-19T11:41:17.089Z,100164.55
2023-02-19T11:44:04.519Z,100159.77
2023-02-19T11:47:11.683Z,100154.13
2023-02-19T11:50:11.408Z,100144.52
2023-02-19T11:52:55.085Z,100146.74
2023-02-19T11:55:41.756Z,100147.03
2023-02-19T11:58:28.456Z,100143.73
2023-02-19T12:01:35.099Z,100134.33
2023-02-19T12:04:18.239Z,100134.29
2023-02-19T12:07:29.742Z,100136.91
2023-02-19T12:10:25.728Z,100132.32
2023-02-19T12:13:00.540Z,100119.20
2023-02-19T12:15:50.777Z,100111.61
2023-02-19T12:18:40.881Z,100108.53
2023-02-19T12:21:24.903Z,100101.98
2023-02-19T12:24:12.038Z,100097.45
2023-02-19T12:27:13.058Z,100093.95
2023-02-19T12:29:41.081Z,100090.71
2023-02-19T12:32:28.917Z,100079.16
2023-02-19T12:34:56.749Z,100074.04
2023-02-19T12:37:30.750Z,100076.05
2023-02-19T12:40:33.004Z,100071.50
2023-02-19T12:43:13.783Z,100076.50
2023-02-19T12:45:57.953Z,100072.11
2023-02-19T12:48:30.304Z,100068.71
2023-02-19T12:51:30.420Z,100068.30
2023-02-19T12:54:07.249Z,100069.38
2023-02-19T12:56:42.967Z,100066.05
2023-02-19T12:59:16.905Z,100062.52
2023-02-19T13:01:59.447Z,100056.66
2023-02-19T13:04:43.278Z,100052.27
2023-02-19T13:07:17.520Z,100047.95
2023-02-19T13:09:54.503Z,100044.76
2023-02-19T13:12:30.318Z,100042.80
2023-02-19T13:15:03.685Z,100032.38
2023-02-19T13:17:38.305Z,100023.95
2023-02-19T13:20:37.088Z,100015.27
2023-02-19T13:23:47.560Z,100020.42
2023-02-19T13:26:43.261Z,100016.48
2023-02-19T13:29:37.181Z,100012.71
2023-02-19T13:32:23.348Z,100008.25
2023-02-19T13:35:06.712Z,100010.98
2023-02-19T13:37:35.421Z,100009.44
2023-02-19T13:40:18.729Z,100006.36
2023-02-19T13:42:56.115Z,99999.77
2023-02-19T13:45:46.076Z,99998.71
2023-02-19T13:48:36.112Z,99994.36
2023-02-19T13:51:13.524Z,99992.27
2023-02-19T13:53:44.894Z,99986.98
2023-02-19T13:56:36.972Z,99981.97
2023-02-19T13:59:10.882Z,99974.44
2023-02-19T14:01:53.865Z,99968.45
2023-02-19T14:04:32.666Z,99968.40
2023-02-19T14:07:03.696Z,99969.80
2023-02-19T14:09:34.367Z,99967.66
2023-02-19T14:12:09.604Z,99968.90
2023-02-19T14:14:54.522Z,99967.36
2023-02-19T14:17:27.181Z,99968.69
2023-02-19T14:19:58.862Z,99961.34
2023-02-19T14:22:45.219Z,99956.09
2023-02-19T14:25:31.939Z,99956.30
2023-02-19T14:28:05.707Z,99957.98
2023-02-19T14:30:40.806Z,99960.23
2023-02-19T14:33:11.430Z,99965.82
2023-02-19T14:35:43.777Z,99967.64
2023-02-19T14:38:21.261Z,99970.89
2023-02-19T14:40:50.932Z,99970.50
2023-02-19T14:43:21.305Z,99971.34
2023-02-19T14:46:00.545Z,99974.95
2023-02-19T14:48:49.305Z,99974.25
2023-02-19T14:51:41.458Z,99975.33
2023-02-19T14:54:21.774Z,99978.64
2023-02-19T14:56:52.847Z,99978.55
2023-02-19T14:59:20.679Z,99973.94
2023-02-19T15:02:03.668Z,99968.62
2023-02-19T15:04:36.813Z,99963.48
2023-02-19T15:07:08.430Z,99958.40
2023-02-19T15:09:47.447Z,99956.85
2023-02-19T15:12:18.712Z,99956.47
2023-02-19T15:14:48.638Z,99957.67
2023-02-19T15:17:31.655Z,99955.59
2023-02-19T15:20:05.714Z,99949.48
2023-02-19T15:22:33.677Z,99944.30
2023-02-19T15:25:06.268Z,99961.42
2023-02-19T15:27:35.122Z,99998.29
2023-02-19T15:30:03.456Z,100019.88
2023-02-19T15:32:32.738Z,100025.05
2023-02-19T15:35:03.253Z,100027.41
2023-02-19T15:37:34.056Z,100021.62
2023-02-19T15:40:07.761Z,100009.30
2023-02-19T15:42:38.143Z,99996.44
2023-02-19T15:45:31.832Z,99994.96
2023-02-19T15:48:20.370Z,100000.27
2023-02-19T15:50:52.949Z,100005.10
2023-02-19T15:53:25.166Z,100006.94
2023-02-19T15:55:59.168Z,100007.23
2023-02-19T15:58:40.550Z,100010.61
2023-02-19T16:01:14.715Z,100008.81
2023-02-19T16:03:43.150Z,100011.94
2023-02-19T16:06:15.283Z,100012.59
2023-02-19T16:08:45.666Z,100011.76
2023-02-19T16:11:22.905Z,100013.69
2023-02-19T16:13:51.984Z,100010.14
2023-02-19T16:16:30.526Z,100005.48
2023-02-19T16:18:58.755Z,99999.75
2023-02-19T16:21:28.391Z,100003.15
2023-02-19T16:24:18.701Z,100007.88
2023-02-19T16:26:47.130Z,100012.67
2023-02-19T16:29:30.384Z,100021.53
2023-02-19T16:32:01.839Z,100028.59
2023-02-19T16:34:47.346Z,100031.41
2023-02-19T16:37:33.333Z,100032.20
2023-02-19T16:40:21.588Z,100032.11
2023-02-19T16:42:49.717Z,100030.42
2023-02-19T16:45:18.296Z,100029.75
2023-02-19T16:47:51.410Z,100031.30
2023-02-19T16:50:22.133Z,100044.29
2023-02-19T16:52:50.740Z,100048.09
2023-02-19T16:55:18.606Z,100049.98
2023-02-19T16:57:46.598Z,100056.63
2023-02-19T17:00:23.879Z,100052.95
2023-02-19T17:02:54.643Z,100055.48
2023-02-19T17:05:25.541Z,100064.69
2023-02-19T17:07:54.223Z,100073.83
2023-02-19T17:10:25.749Z,100079.13
2023-02-19T17:12:56.106Z,100079.98
2023-02-19T17:15:24.018Z,100080.98
2023-02-19T17:17:51.943Z,100082.46
2023-02-19T17:20:27.829Z,100086.42
2023-02-19T17:22:56.711Z,100097.13
2023-02-19T17:25:25.103Z,100100.04
2023-02-19T17:27:53.130Z,100104.06
2023-02-19T17:30:28.570Z,100107.55
2023-02-19T17:32:56.883Z,100112.16
2023-02-19T17:35:25.300Z,100113.45
2023-02-19T17:37:53.609Z,100115.27
2023-02-19T17:40:32.681Z,100122.70
2023-02-19T17:43:01.685Z,100128.80
2023-02-19T17:45:29.973Z,100131.41
2023-02-19T17:47:58.618Z,100131.56
2023-02-19T17:50:32.100Z,100132.77
2023-02-19T17:53:00.184Z,100130.45
2023-02-19T17:55:28.189Z,100129.04
2023-02-19T17:57:56.925Z,100130.87
2023-02-19T18:00:28.126Z,100136.14
2023-02-19T18:02:56.456Z,100145.10
2023-02-19T18:05:25.214Z,100151.35
2023-02-19T18:07:53.270Z,100154.71
2023-02-19T18:10:26.046Z,100153.76
2023-02-19T18:12:54.414Z,100160.95
2023-02-19T18:15:26.761Z,100163.73
2023-02-19T18:17:56.427Z,100165.55
2023-02-19T18:20:28.917Z,100167.27
2023-02-19T18:22:57.913Z,100168.52
2023-02-19T18:25:25.900Z,100170.27
2023-02-19T18:27:54.670Z,100176.96
2023-02-19T18:30:23.866Z,100183.20
2023-02-19T18:32:52.104Z,100188.41
2023-02-19T18:35:21.413Z,100189.96
2023-02-19T18:37:53.351Z,100188.88
2023-02-19T18:40:26.412Z,100191.52
2023-02-19T18:42:54.710Z,100193.98
2023-02-19T18:45:22.669Z,100192.53
2023-02-19T18:47:51.487Z,100192.43
2023-02-19T18:50:20.641Z,100193.34
2023-02-19T18:52:48.735Z,100193.05
2023-02-19T18:55:16.942Z,100192.64
2023-02-19T18:57:45.942Z,100198.10
2023-02-19T19:00:19.518Z,100205.95
2023-02-19T19:02:50.520Z,100212.97
2023-02-19T19:05:23.537Z,100210.76
2023-02-19T19:07:56.786Z,100210.60
2023-02-19T19:10:25.173Z,100218.09
2023-02-19T19:12:54.444Z,100223.73
2023-02-19T19:15:23.127Z,100224.26
2023-02-19T19:17:51.635Z,100225.05
2023-02-19T19:20:21.685Z,100228.24
2023-02-19T19:22:51.566Z,100235.86
2023-02-19T19:25:21.929Z,100242.53
2023-02-19T19:27:53.220Z,100245.16
2023-02-19T19:30:22.349Z,100250.00
2023-02-19T19:32:52.483Z,100258.89
2023-02-19T19:35:21.878Z,100260.76
2023-02-19T19:37:49.989Z,100266.40
2023-02-19T19:40:18.653Z,100272.69
2023-02-19T19:42:47.058Z,100273.85
2023-02-19T19:45:15.812Z,100278.64
2023-02-19T19:47:43.801Z,100275.73
2023-02-19T19:50:14.600Z,100276.11
2023-02-19T19:52:42.334Z,100278.20
2023-02-19T19:55:10.651Z,100275.77
2023-02-19T19:57:40.872Z,100273.00
2023-02-19T20:00:14.328Z,100274.55
2023-02-19T20:02:42.831Z,100281.92
2023-02-19T20:05:13.215Z,100288.69
2023-02-19T20:07:41.303Z,100294.97
2023-02-19T20:10:11.893Z,100299.88
2023-02-19T20:12:40.753Z,100304.23
2023-02-19T20:15:09.860Z,100313.26
2023-02-19T20:17:38.191Z,100323.10
2023-02-19T20:20:07.444Z,100332.16
2023-02-19T20:22:36.740Z,100341.25
2023-02-19T20:25:06.058Z,100350.10
2023-02-19T20:27:34.278Z,100359.39
2023-02-19T20:30:02.462Z,100369.21
2023-02-19T20:32:30.863Z,100383.98
2023-02-19T20:34:58.712Z,100388.45
2023-02-19T20:37:26.931Z,100407.55
2023-02-19T20:39:55.172Z,100417.31
2023-02-19T20:42:23.203Z,100427.94
2023-02-19T20:44:51.068Z,100434.92
2023-02-19T20:47:19.176Z,100444.86
2023-02-19T20:49:47.264Z,100448.90
2023-02-19T20:52:17.145Z,100456.98
2023-02-19T20:54:45.719Z,100458.35
2023-02-19T20:57:14.555Z,100465.14
2023-02-19T20:59:44.161Z,100492.72
2023-02-19T21:02:18.874Z,100507.52
2023-02-19T21:04:47.960Z,100508.85
2023-02-19T21:07:16.761Z,100509.25
2023-02-19T21:09:44.914Z,100513.40
2023-02-19T21:12:13.801Z,100517.75
2023-02-19T21:14:42.239Z,100527.61
2023-02-19T21:17:10.192Z,100536.84
2023-02-19T21:19:38.295Z,100548.61
2023-02-19T21:22:06.387Z,100554.45
2023-02-19T21:24:34.604Z,100569.87
2023-02-19T21:27:02.474Z,100585.63
2023-02-19T21:29:30.481Z,100594.48
2023-02-19T21:31:59.166Z,100589.63
2023-02-19T21:34:29.413Z,100595.70
2023-02-19T21:36:57.572Z,100604.95
2023-02-19T21:39:28.727Z,100608.21
2023-02-19T21:41:58.738Z,100613.94
2023-02-19T21:44:26.788Z,100610.72
2023-02-19T21:46:54.966Z,100609.25
2023-02-19T21:49:23.224Z,100609.61
2023-02-19T21:51:51.034Z,100614.27
2023-02-19T21:54:25.209Z,100613.45
2023-02-19T21:56:53.913Z,100609.83
2023-02-19T21:59:22.643Z,100610.35
2023-02-19T22:01:50.835Z,100614.64
2023-02-19T22:04:21.398Z,100623.89
2023-02-19T22:06:49.281Z,100628.46
2023-02-19T22:09:17.563Z,100628.76
2023-02-19T22:11:45.775Z,100636.79
2023-02-19T22:14:13.935Z,100647.41
2023-02-19T22:16:42.180Z,100653.70
2023-02-19T22:19:12.097Z,100664.98
2023-02-19T22:21:45.138Z,100668.41
2023-02-19T22:24:18.992Z,100673.18
2023-02-19T22:26:48.109Z,100675.38
2023-02-19T22:29:16.914Z,100675.89
2023-02-19T22:31:45.158Z,100684.04
2023-02-19T22:34:14.018Z,100692.73
2023-02-19T22:36:42.719Z,100691.56
2023-02-19T22:39:19.005Z,100699.77
2023-02-19T22:41:47.771Z,100706.64
2023-02-19T22:44:16.199Z,100704.50
2023-02-19T22:46:50.410Z,100703.14
2023-02-19T22:49:19.590Z,100701.26
2023-02-19T22:52:02.325Z,100702.10
2023-02-19T22:54:30.352Z,100706.39
2023-02-19T22:56:58.343Z,100716.61
2023-02-19T22:59:26.340Z,100720.43
2023-02-19T23:01:54.823Z,100722.29
2023-02-19T23:04:24.567Z,100720.49
2023-02-19T23:06:53.010Z,100725.30
2023-02-19T23:09:24.769Z,100730.80
2023-02-19T23:11:53.653Z,100734.79
2023-02-19T23:14:22.180Z,100742.17
2023-02-19T23:16:50.081Z,100755.31
2023-02-19T23:19:18.087Z,100758.95
2023-02-19T23:21:46.711Z,100767.59
2023-02-19T23:24:15.393Z,100770.11
2023-02-19T23:26:49.205Z,100777.73
2023-02-19T23:29:20.142Z,100787.51
2023-02-19T23:31:48.276Z,100784.95
2023-02-19T23:34:16.755Z,100785.83
2023-02-19T23:36:48.245Z,100787.20
2023-02-19T23:39:18.810Z,100788.55
2023-02-19T23:41:53.438Z,100790.82
2023-02-19T23:44:23.554Z,100784.39
2023-02-19T23:46:52.133Z,100777.80
2023-02-19T23:49:20.098Z,100773.67
2023-02-19T23:51:48.394Z,100766.23
2023-02-19T23:54:16.544Z,100769.69
2023-02-19T23:56:44.507Z,100778.02
2023-02-19T23:59:12.758Z,100780.42
